createdAt,value
2018-11-13T00:00:29.435Z,17.03
2018-11-13T00:02:58.088Z,17.67
2018-11-13T00:05:27.174Z,16.50
2018-11-13T00:07:55.699Z,17.47
2018-11-13T00:10:24.312Z,17.83
2018-11-13T00:12:52.877Z,17.03
2018-11-13T00:15:21.379Z,17.83
2018-11-13T00:17:49.883Z,17.33
2018-11-13T00:20:19.213Z,18.13
2018-11-13T00:22:47.698Z,17.90
2018-11-13T00:25:17.372Z,17.50
2018-11-13T00:27:46.083Z,17.23
2018-11-13T00:30:17.334Z,17.53
2018-11-13T00:32:45.884Z,17.50
2018-11-13T00:35:15.525Z,17.10
2018-11-13T00:37:44.665Z,18.10
2018-11-13T00:40:13.949Z,17.77
2018-11-13T00:42:43.510Z,17.37
2018-11-13T00:45:12.175Z,17.00
2018-11-13T00:47:40.679Z,17.77
2018-11-13T00:50:12.880Z,17.40
2018-11-13T00:52:42.147Z,18.43
2018-11-13T00:55:11.062Z,18.27
2018-11-13T00:57:39.837Z,17.00
2018-11-13T01:00:10.903Z,17.33
2018-11-13T01:02:39.546Z,18.17
2018-11-13T01:05:10.276Z,18.93
2018-11-13T01:07:38.833Z,17.73
2018-11-13T01:10:08.667Z,20.67
2018-11-13T01:12:37.247Z,20.97
2018-11-13T01:15:06.427Z,21.17
2018-11-13T01:17:34.992Z,20.40
2018-11-13T01:20:03.672Z,17.87
2018-11-13T01:22:32.331Z,19.97
2018-11-13T01:25:00.908Z,19.10
2018-11-13T01:27:29.559Z,19.63
2018-11-13T01:29:59.002Z,18.90
2018-11-13T01:32:28.947Z,19.47
2018-11-13T01:34:57.656Z,20.07
2018-11-13T01:37:26.455Z,19.97
2018-11-13T01:39:55.468Z,20.67
2018-11-13T01:42:24.872Z,18.03
2018-11-13T01:44:53.478Z,18.90
2018-11-13T01:47:22.101Z,19.73
2018-11-13T01:49:50.706Z,20.60
2018-11-13T01:52:19.604Z,20.77
2018-11-13T01:54:48.237Z,19.83
2018-11-13T01:57:16.941Z,18.80
2018-11-13T01:59:45.647Z,20.10
2018-11-13T02:02:14.478Z,20.07
2018-11-13T02:04:43.267Z,22.80
2018-11-13T02:07:11.942Z,20.50
2018-11-13T02:09:40.629Z,19.37
2018-11-13T02:12:09.285Z,20.30
2018-11-13T02:14:37.929Z,19.47
2018-11-13T02:17:07.409Z,18.30
2018-11-13T02:19:36.106Z,19.00
2018-11-13T02:22:04.824Z,19.47
2018-11-13T02:24:33.421Z,18.87
2018-11-13T02:27:02.060Z,18.67
2018-11-13T02:29:30.698Z,18.13
2018-11-13T02:31:59.399Z,18.97
2018-11-13T02:34:28.252Z,19.83
2018-11-13T02:36:57.008Z,15.00
2018-11-13T02:39:25.727Z,18.77
2018-11-13T02:41:54.444Z,20.00
2018-11-13T02:44:23.130Z,19.10
2018-11-13T02:46:51.879Z,18.57
2018-11-13T02:49:20.465Z,17.03
2018-11-13T02:51:49.165Z,17.57
2018-11-13T02:54:17.821Z,17.67
2018-11-13T02:56:46.588Z,17.43
2018-11-13T02:59:15.340Z,16.67
2018-11-13T03:01:44.011Z,17.20
2018-11-13T03:04:12.806Z,15.90
2018-11-13T03:06:41.593Z,16.50
2018-11-13T03:09:10.421Z,16.10
2018-11-13T03:11:39.246Z,15.43
2018-11-13T03:14:08.041Z,15.63
2018-11-13T03:16:36.714Z,14.70
2018-11-13T03:19:05.783Z,12.43
2018-11-13T03:21:34.536Z,12.43
2018-11-13T03:24:03.387Z,12.83
2018-11-13T03:26:32.220Z,14.27
2018-11-13T03:29:00.917Z,13.70
2018-11-13T03:31:29.928Z,12.47
2018-11-13T03:33:58.530Z,11.73
2018-11-13T03:36:27.209Z,12.07
2018-11-13T03:38:55.910Z,10.77
2018-11-13T03:41:24.868Z,10.33
2018-11-13T03:43:53.729Z,8.37
2018-11-13T03:46:22.458Z,8.90
2018-11-13T03:48:51.092Z,8.87
2018-11-13T03:51:19.728Z,9.47
2018-11-13T03:53:48.408Z,9.20
2018-11-13T03:56:17.083Z,9.13
2018-11-13T03:58:45.720Z,9.80
2018-11-13T04:01:14.699Z,9.47
2018-11-13T04:03:43.471Z,9.13
2018-11-13T04:06:12.131Z,9.17
2018-11-13T04:08:40.750Z,9.30
2018-11-13T04:11:09.591Z,9.10
2018-11-13T04:13:38.260Z,9.77
2018-11-13T04:16:06.793Z,8.63
2018-11-13T04:18:35.589Z,9.90
2018-11-13T04:21:04.956Z,8.20
2018-11-13T04:23:35.762Z,8.00
2018-11-13T04:26:04.456Z,7.90
2018-11-13T04:28:33.280Z,8.67
2018-11-13T04:31:01.980Z,7.97
2018-11-13T04:33:30.895Z,7.30
2018-11-13T04:35:59.677Z,7.37
2018-11-13T04:38:28.415Z,7.97
2018-11-13T04:40:57.050Z,6.43
2018-11-13T04:43:25.722Z,7.67
2018-11-13T04:45:54.476Z,7.03
2018-11-13T04:48:23.328Z,7.33
2018-11-13T04:50:52.064Z,6.63
2018-11-13T04:53:20.932Z,6.93
2018-11-13T04:55:49.781Z,7.03
2018-11-13T04:58:18.519Z,6.83
2018-11-13T05:00:47.252Z,6.60
2018-11-13T05:03:15.924Z,5.87
2018-11-13T05:05:44.614Z,5.73
2018-11-13T05:08:13.339Z,5.57
2018-11-13T05:10:42.155Z,5.90
2018-11-13T05:13:10.886Z,4.50
2018-11-13T05:15:39.650Z,5.73
2018-11-13T05:18:08.326Z,5.07
2018-11-13T05:20:37.046Z,4.80
2018-11-13T05:23:05.939Z,5.70
2018-11-13T05:25:34.547Z,5.03
2018-11-13T05:28:03.201Z,5.53
2018-11-13T05:30:31.844Z,6.13
2018-11-13T05:33:00.531Z,5.87
2018-11-13T05:35:29.173Z,5.30
2018-11-13T05:37:57.806Z,4.87
2018-11-13T05:40:26.512Z,5.83
2018-11-13T05:42:55.514Z,4.83
2018-11-13T05:45:25.475Z,4.97
2018-11-13T05:47:54.192Z,4.67
2018-11-13T05:50:23.632Z,4.47
2018-11-13T05:52:53.543Z,4.53
2018-11-13T05:55:22.400Z,4.90
2018-11-13T05:57:51.449Z,4.63
2018-11-13T06:00:25.156Z,5.07
2018-11-13T06:02:53.895Z,4.73
2018-11-13T06:05:22.790Z,4.67
2018-11-13T06:07:51.574Z,4.77
2018-11-13T06:10:20.323Z,4.70
2018-11-13T06:12:49.138Z,4.83
2018-11-13T06:15:18.101Z,5.00
2018-11-13T06:17:46.916Z,5.03
2018-11-13T06:20:17.094Z,4.50
2018-11-13T06:22:46.091Z,4.60
2018-11-13T06:25:16.063Z,4.57
2018-11-13T06:27:45.808Z,5.43
2018-11-13T06:30:18.207Z,5.60
2018-11-13T06:32:47.478Z,4.83
2018-11-13T06:35:21.472Z,4.70
2018-11-13T06:37:50.042Z,4.67
2018-11-13T06:40:19.184Z,4.50
2018-11-13T06:42:47.743Z,4.20
2018-11-13T06:45:17.777Z,4.27
2018-11-13T06:47:47.120Z,4.60
2018-11-13T06:50:15.773Z,4.50
2018-11-13T06:52:45.122Z,4.37
2018-11-13T06:55:19.642Z,4.90
2018-11-13T06:57:48.374Z,4.70
2018-11-13T07:00:17.169Z,4.73
2018-11-13T07:02:45.893Z,5.00
2018-11-13T07:05:16.211Z,4.80
2018-11-13T07:07:45.456Z,4.47
2018-11-13T07:10:17.122Z,5.07
2018-11-13T07:12:46.922Z,5.60
2018-11-13T07:15:22.679Z,5.37
2018-11-13T07:17:52.783Z,5.10
2018-11-13T07:20:24.403Z,4.73
2018-11-13T07:22:53.031Z,4.83
2018-11-13T07:25:21.980Z,5.00
2018-11-13T07:27:50.586Z,5.40
2018-11-13T07:30:19.940Z,4.90
2018-11-13T07:32:48.442Z,4.40
2018-11-13T07:35:18.021Z,4.63
2018-11-13T07:37:48.098Z,4.80
2018-11-13T07:40:16.648Z,4.60
2018-11-13T07:42:45.205Z,4.03
2018-11-13T07:45:14.771Z,3.77
2018-11-13T07:47:44.376Z,4.13
2018-11-13T07:50:13.568Z,3.43
2018-11-13T07:52:42.137Z,3.73
2018-11-13T07:55:11.666Z,3.13
2018-11-13T07:57:40.202Z,3.40
2018-11-13T08:00:11.884Z,3.20
2018-11-13T08:02:40.995Z,3.20
2018-11-13T08:05:09.584Z,3.00
2018-11-13T08:07:38.102Z,3.47
2018-11-13T08:10:07.454Z,3.37
2018-11-13T08:12:35.919Z,3.03
2018-11-13T08:15:04.566Z,3.33
2018-11-13T08:17:33.035Z,2.90
2018-11-13T08:20:01.557Z,3.40
2018-11-13T08:22:30.127Z,3.03
2018-11-13T08:24:58.608Z,3.03
2018-11-13T08:27:27.023Z,3.50
2018-11-13T08:29:55.499Z,3.23
2018-11-13T08:32:24.144Z,3.30
2018-11-13T08:34:52.749Z,3.03
2018-11-13T08:37:21.351Z,3.07
2018-11-13T08:39:49.795Z,3.30
2018-11-13T08:42:18.230Z,2.90
2018-11-13T08:44:47.059Z,3.03
2018-11-13T08:47:15.618Z,3.70
2018-11-13T08:49:44.283Z,3.33
2018-11-13T08:52:12.721Z,3.43
2018-11-13T08:54:41.223Z,3.50
2018-11-13T08:57:09.684Z,2.70
2018-11-13T08:59:38.248Z,2.40
2018-11-13T09:02:07.059Z,2.63
2018-11-13T09:04:35.647Z,2.33
2018-11-13T09:07:04.264Z,2.27
2018-11-13T09:09:32.881Z,2.37
2018-11-13T09:12:01.638Z,2.30
2018-11-13T09:14:30.188Z,2.50
2018-11-13T09:16:58.712Z,2.60
2018-11-13T09:19:27.610Z,2.40
2018-11-13T09:21:56.054Z,2.30
2018-11-13T09:24:24.498Z,1.77
2018-11-13T09:26:52.991Z,2.13
2018-11-13T09:29:21.440Z,2.57
2018-11-13T09:31:50.012Z,2.13
2018-11-13T09:34:18.583Z,2.13
2018-11-13T09:36:47.091Z,2.27
2018-11-13T09:39:15.706Z,2.17
2018-11-13T09:41:44.306Z,2.30
2018-11-13T09:44:12.913Z,2.30
2018-11-13T09:46:41.528Z,2.10
2018-11-13T09:49:10.117Z,2.30
2018-11-13T09:51:38.722Z,2.23
2018-11-13T09:54:07.227Z,2.40
2018-11-13T09:56:35.883Z,1.93
2018-11-13T09:59:04.369Z,2.93
2018-11-13T10:01:33.244Z,2.03
2018-11-13T10:04:02.049Z,2.20
2018-11-13T10:06:29.959Z,1.93
2018-11-13T10:08:58.432Z,2.23
2018-11-13T10:11:26.993Z,3.00
2018-11-13T10:13:55.524Z,1.90
2018-11-13T10:16:24.189Z,2.10
2018-11-13T10:18:52.599Z,1.83
2018-11-13T10:21:21.189Z,1.80
2018-11-13T10:23:49.792Z,2.10
2018-11-13T10:26:18.390Z,2.00
2018-11-13T10:28:46.831Z,2.00
2018-11-13T10:31:15.472Z,1.80
2018-11-13T10:33:44.046Z,2.27
2018-11-13T10:36:12.667Z,2.20
2018-11-13T10:38:41.264Z,2.03
2018-11-13T10:41:09.981Z,1.60
2018-11-13T10:43:38.561Z,2.10
2018-11-13T10:46:07.173Z,2.00
2018-11-13T10:48:35.781Z,1.77
2018-11-13T10:51:04.349Z,1.90
2018-11-13T10:53:32.993Z,1.90
2018-11-13T10:56:01.635Z,1.87
2018-11-13T10:58:30.222Z,2.20
2018-11-13T11:01:00.203Z,2.20
2018-11-13T11:03:34.164Z,1.80
2018-11-13T11:06:02.870Z,2.10
2018-11-13T11:08:31.861Z,2.97
2018-11-13T11:11:00.484Z,1.87
2018-11-13T11:13:29.311Z,1.73
2018-11-13T11:15:57.798Z,1.73
2018-11-13T11:18:26.519Z,1.27
2018-11-13T11:20:55.169Z,2.00
2018-11-13T11:23:23.806Z,1.97
2018-11-13T11:25:52.467Z,1.67
2018-11-13T11:28:20.996Z,1.63
2018-11-13T11:30:49.512Z,1.60
2018-11-13T11:33:18.163Z,1.70
2018-11-13T11:35:47.706Z,1.40
2018-11-13T11:38:16.179Z,1.73
2018-11-13T11:40:45.674Z,1.67
2018-11-13T11:43:14.188Z,1.17
2018-11-13T11:45:42.884Z,1.70
2018-11-13T11:48:11.942Z,2.23
2018-11-13T11:50:40.636Z,1.60
2018-11-13T11:53:09.117Z,1.50
2018-11-13T11:55:37.900Z,2.30
2018-11-13T11:58:06.379Z,1.60
2018-11-13T12:00:36.335Z,1.83
2018-11-13T12:03:05.608Z,1.73
2018-11-13T12:05:34.280Z,1.77
2018-11-13T12:08:03.028Z,1.77
2018-11-13T12:10:31.647Z,1.80
2018-11-13T12:13:00.187Z,1.53
2018-11-13T12:15:28.686Z,1.73
2018-11-13T12:17:57.304Z,1.60
2018-11-13T12:20:26.007Z,1.90
2018-11-13T12:22:54.528Z,1.90
2018-11-13T12:25:22.986Z,2.07
2018-11-13T12:27:51.588Z,2.20
2018-11-13T12:30:21.904Z,1.83
2018-11-13T12:32:51.384Z,1.73
2018-11-13T12:35:21.322Z,1.70
2018-11-13T12:37:51.734Z,1.87
2018-11-13T12:40:22.334Z,3.40
2018-11-13T12:42:52.865Z,3.17
2018-11-13T12:45:22.045Z,3.03
2018-11-13T12:47:51.015Z,1.57
2018-11-13T12:50:21.015Z,1.60
2018-11-13T12:52:49.821Z,1.30
2018-11-13T12:55:23.626Z,1.80
2018-11-13T12:57:52.262Z,1.50
2018-11-13T13:00:24.340Z,1.50
2018-11-13T13:02:52.979Z,1.73
2018-11-13T13:05:21.669Z,1.53
2018-11-13T13:07:50.331Z,1.77
2018-11-13T13:10:19.850Z,1.67
2018-11-13T13:12:48.549Z,1.37
2018-11-13T13:15:18.879Z,1.27
2018-11-13T13:17:47.622Z,1.80
2018-11-13T13:20:19.391Z,1.40
2018-11-13T13:22:49.015Z,1.80
2018-11-13T13:25:18.410Z,1.57
2018-11-13T13:27:49.214Z,1.30
2018-11-13T13:30:22.128Z,1.60
2018-11-13T13:32:51.064Z,1.70
2018-11-13T13:36:09.026Z,1.50
2018-11-13T13:38:38.884Z,1.50
2018-11-13T13:41:07.760Z,2.23
2018-11-13T13:43:36.716Z,2.00
2018-11-13T13:46:05.646Z,1.73
2018-11-13T13:48:34.672Z,1.50
2018-11-13T13:51:03.381Z,2.10
2018-11-13T13:53:32.829Z,1.57
2018-11-13T13:56:01.455Z,1.30
2018-11-13T13:58:30.107Z,1.80
2018-11-13T14:00:59.079Z,1.23
2018-11-13T14:03:27.858Z,1.40
2018-11-13T14:05:56.540Z,1.80
2018-11-13T14:08:25.492Z,1.90
2018-11-13T14:10:54.407Z,2.20
2018-11-13T14:13:23.190Z,1.97
2018-11-13T14:15:52.091Z,1.40
2018-11-13T14:18:21.087Z,1.93
2018-11-13T14:20:50.033Z,1.70
2018-11-13T14:23:19.313Z,1.67
2018-11-13T14:25:48.423Z,2.00
2018-11-13T14:28:17.363Z,2.80
2018-11-13T14:30:46.491Z,3.20
2018-11-13T14:33:15.701Z,2.20
2018-11-13T14:35:45.025Z,1.67
2018-11-13T14:38:14.216Z,2.00
2018-11-13T14:40:45.150Z,1.60
2018-11-13T14:43:14.294Z,1.87
2018-11-13T14:45:43.470Z,1.87
2018-11-13T14:48:12.747Z,1.47
2018-11-13T14:50:41.803Z,1.70
2018-11-13T14:53:11.035Z,1.60
2018-11-13T14:55:41.486Z,1.47
2018-11-13T14:58:11.852Z,1.93
2018-11-13T15:00:41.320Z,1.50
2018-11-13T15:03:12.208Z,2.67
2018-11-13T15:05:41.606Z,1.67
2018-11-13T15:08:10.751Z,1.60
2018-11-13T15:10:55.554Z,2.00
2018-11-13T15:13:25.539Z,1.80
2018-11-13T15:15:54.140Z,2.23
2018-11-13T15:18:22.846Z,2.40
2018-11-13T15:20:52.435Z,2.10
2018-11-13T15:23:21.509Z,1.90
2018-11-13T15:25:51.615Z,2.03
2018-11-13T15:28:20.437Z,2.17
2018-11-13T15:30:50.279Z,2.30
2018-11-13T15:33:23.665Z,1.60
2018-11-13T15:35:52.257Z,1.90
2018-11-13T15:38:21.223Z,1.90
2018-11-13T15:40:49.903Z,1.93
2018-11-13T15:43:18.743Z,2.30
2018-11-13T15:45:47.481Z,2.40
2018-11-13T15:48:16.929Z,1.97
2018-11-13T15:50:45.897Z,2.20
2018-11-13T15:53:14.684Z,1.93
2018-11-13T15:55:43.386Z,2.03
2018-11-13T15:58:12.170Z,1.80
2018-11-13T16:00:42.572Z,1.90
2018-11-13T16:03:21.021Z,1.70
2018-11-13T16:05:52.663Z,1.63
2018-11-13T16:08:21.774Z,1.47
2018-11-13T16:10:51.642Z,1.70
2018-11-13T16:13:20.817Z,1.90
2018-11-13T16:15:49.783Z,2.00
2018-11-13T16:18:21.061Z,1.60
2018-11-13T16:20:49.932Z,2.20
2018-11-13T16:23:18.785Z,2.00
2018-11-13T16:25:47.697Z,1.70
2018-11-13T16:28:17.211Z,1.80
2018-11-13T16:30:46.223Z,2.30
2018-11-13T16:33:15.345Z,2.23
2018-11-13T16:35:44.687Z,1.87
2018-11-13T16:38:14.396Z,2.03
2018-11-13T16:40:43.572Z,2.90
2018-11-13T16:43:12.293Z,2.40
2018-11-13T16:45:41.172Z,2.03
2018-11-13T16:48:10.214Z,1.90
2018-11-13T16:50:42.958Z,1.87
2018-11-13T16:53:11.870Z,1.63
2018-11-13T16:55:45.871Z,1.57
2018-11-13T16:58:15.895Z,1.70
2018-11-13T17:00:44.855Z,1.70
2018-11-13T17:03:13.623Z,1.53
2018-11-13T17:05:42.368Z,2.07
2018-11-13T17:08:11.932Z,2.03
2018-11-13T17:10:42.093Z,1.77
2018-11-13T17:13:10.943Z,1.70
2018-11-13T17:15:40.149Z,1.70
2018-11-13T17:18:08.917Z,2.37
2018-11-13T17:20:37.925Z,1.93
2018-11-13T17:23:06.880Z,1.90
2018-11-13T17:25:37.049Z,2.43
2018-11-13T17:28:06.630Z,2.47
2018-11-13T17:30:36.332Z,2.23
2018-11-13T17:33:07.692Z,2.57
2018-11-13T17:35:38.182Z,2.03
2018-11-13T17:38:07.322Z,2.10
2018-11-13T17:40:36.825Z,3.40
2018-11-13T17:43:06.516Z,2.40
2018-11-13T17:45:36.463Z,2.53
2018-11-13T17:48:05.470Z,2.13
2018-11-13T17:50:37.552Z,2.33
2018-11-13T17:53:07.480Z,2.33
2018-11-13T17:55:36.665Z,3.43
2018-11-13T17:58:07.907Z,3.00
2018-11-13T18:00:38.484Z,2.40
2018-11-13T18:03:08.034Z,2.77
2018-11-13T18:05:37.140Z,2.53
2018-11-13T18:08:06.545Z,3.00
2018-11-13T18:10:36.384Z,2.97
2018-11-13T18:13:05.571Z,3.53
2018-11-13T18:15:34.366Z,3.27
2018-11-13T18:18:03.246Z,3.13
2018-11-13T18:20:33.196Z,3.03
2018-11-13T18:23:01.949Z,3.17
2018-11-13T18:25:30.843Z,2.90
2018-11-13T18:28:00.492Z,2.73
2018-11-13T18:30:30.261Z,2.80
2018-11-13T18:32:59.516Z,3.10
2018-11-13T18:35:29.601Z,3.27
2018-11-13T18:38:00.730Z,2.93
2018-11-13T18:40:29.994Z,3.27
2018-11-13T18:42:59.846Z,2.63
2018-11-13T18:45:31.609Z,8.07
2018-11-13T18:48:01.327Z,8.20
2018-11-13T18:50:31.052Z,11.67
2018-11-13T18:52:59.789Z,38.07
2018-11-13T18:55:28.412Z,5.33
2018-11-13T18:57:57.168Z,3.27
2018-11-13T19:00:27.577Z,3.43
2018-11-13T19:02:56.397Z,3.73
2018-11-13T19:05:26.571Z,4.43
2018-11-13T19:07:57.115Z,2.87
2018-11-13T19:10:33.120Z,3.53
2018-11-13T19:13:02.772Z,3.20
2018-11-13T19:15:32.928Z,3.57
2018-11-13T19:18:01.624Z,3.33
2018-11-13T19:20:30.462Z,4.33
2018-11-13T19:22:59.082Z,3.53
2018-11-13T19:25:29.035Z,3.30
2018-11-13T19:27:57.994Z,3.87
2018-11-13T19:30:26.714Z,3.20
2018-11-13T19:32:55.384Z,2.67
2018-11-13T19:35:24.127Z,2.97
2018-11-13T19:37:52.545Z,3.67
2018-11-13T19:40:24.369Z,2.70
2018-11-13T19:42:53.594Z,2.70
2018-11-13T19:45:22.476Z,3.00
2018-11-13T19:47:51.059Z,2.93
2018-11-13T19:50:22.150Z,3.73
2018-11-13T19:52:50.870Z,3.93
2018-11-13T19:55:20.429Z,2.93
2018-11-13T19:57:49.466Z,3.07
2018-11-13T20:00:34.816Z,2.97
2018-11-13T20:03:04.660Z,3.00
2018-11-13T20:05:33.491Z,3.03
2018-11-13T20:08:02.192Z,3.57
2018-11-13T20:10:32.049Z,2.93
2018-11-13T20:13:02.035Z,2.80
2018-11-13T20:15:31.397Z,3.13
2018-11-13T20:18:00.008Z,2.37
2018-11-13T20:20:29.924Z,2.90
2018-11-13T20:22:59.494Z,3.60
2018-11-13T20:25:29.514Z,2.50
2018-11-13T20:27:58.144Z,3.27
2018-11-13T20:30:28.556Z,3.20
2018-11-13T20:32:57.228Z,3.37
2018-11-13T20:35:25.930Z,3.60
2018-11-13T20:37:56.021Z,3.00
2018-11-13T20:40:27.212Z,2.73
2018-11-13T20:42:57.231Z,4.23
2018-11-13T20:45:26.020Z,3.53
2018-11-13T20:47:54.657Z,3.80
2018-11-13T20:50:25.237Z,3.57
2018-11-13T20:52:53.962Z,3.70
2018-11-13T20:55:22.685Z,3.67
2018-11-13T20:57:51.341Z,3.80
2018-11-13T21:00:21.818Z,4.03
2018-11-13T21:02:50.732Z,3.30
2018-11-13T21:05:19.456Z,3.50
2018-11-13T21:07:48.187Z,3.67
2018-11-13T21:10:18.618Z,3.80
2018-11-13T21:12:47.781Z,3.80
2018-11-13T21:15:18.593Z,3.53
2018-11-13T21:17:47.284Z,3.83
2018-11-13T21:20:17.317Z,3.93
2018-11-13T21:22:46.092Z,3.70
2018-11-13T21:25:16.249Z,3.40
2018-11-13T21:27:44.937Z,3.87
2018-11-13T21:30:17.112Z,3.83
2018-11-13T21:32:46.700Z,3.70
2018-11-13T21:35:15.652Z,3.93
2018-11-13T21:37:45.569Z,3.97
2018-11-13T21:40:15.343Z,4.10
2018-11-13T21:42:45.069Z,3.70
2018-11-13T21:45:14.213Z,3.43
2018-11-13T21:47:43.319Z,3.30
2018-11-13T21:50:14.006Z,3.50
2018-11-13T21:52:42.892Z,4.07
2018-11-13T21:55:15.149Z,3.97
2018-11-13T21:57:43.840Z,3.80
2018-11-13T22:00:20.454Z,4.40
2018-11-13T22:03:05.320Z,3.57
2018-11-13T22:05:34.823Z,3.87
2018-11-13T22:08:03.477Z,3.67
2018-11-13T22:10:32.068Z,3.70
2018-11-13T22:13:00.608Z,4.40
2018-11-13T22:15:29.851Z,3.67
2018-11-13T22:17:58.448Z,3.43
2018-11-13T22:20:27.017Z,3.93
2018-11-13T22:22:57.003Z,3.50
2018-11-13T22:25:26.341Z,3.97
2018-11-13T22:27:56.331Z,4.43
2018-11-13T22:30:26.113Z,4.60
2018-11-13T22:32:54.777Z,3.80
2018-11-13T22:35:23.750Z,4.03
2018-11-13T22:37:52.382Z,4.03
2018-11-13T22:40:22.604Z,3.83
2018-11-13T22:42:51.445Z,4.90
2018-11-13T22:45:21.348Z,4.43
2018-11-13T22:47:50.088Z,4.30
2018-11-13T22:50:20.181Z,4.40
2018-11-13T22:52:49.162Z,4.57
2018-11-13T22:55:18.264Z,4.00
2018-11-13T22:57:47.704Z,3.90
2018-11-13T23:00:23.662Z,4.27
2018-11-13T23:02:53.406Z,4.43
2018-11-13T23:05:22.091Z,4.10
2018-11-13T23:07:50.818Z,4.23
2018-11-13T23:10:19.748Z,3.53
2018-11-13T23:12:48.457Z,3.70
2018-11-13T23:15:19.605Z,3.67
2018-11-13T23:17:48.226Z,4.20
2018-11-13T23:20:18.224Z,3.77
2018-11-13T23:22:46.776Z,3.73
2018-11-13T23:25:16.643Z,3.83
2018-11-13T23:27:46.202Z,4.13
2018-11-13T23:30:22.366Z,3.50
2018-11-13T23:32:51.180Z,3.70
2018-11-13T23:35:20.045Z,3.50
2018-11-13T23:37:49.989Z,3.73
2018-11-13T23:40:20.008Z,4.03
2018-11-13T23:42:49.050Z,3.87
2018-11-13T23:45:18.797Z,3.63
2018-11-13T23:47:47.997Z,3.87
2018-11-13T23:50:16.679Z,3.97
2018-11-13T23:52:46.019Z,3.93
2018-11-13T23:55:15.177Z,4.20
2018-11-13T23:57:44.373Z,4.13
